createdAt,value
2019-02-02T00:00:56.812Z,97830.95
2019-02-02T00:02:07.813Z,97826.43
2019-02-02T00:03:12.060Z,97822.75
2019-02-02T00:04:17.602Z,97824.95
2019-02-02T00:05:21.570Z,97820.05
2019-02-02T00:06:25.959Z,97820.81
2019-02-02T00:07:30.100Z,97821.30
2019-02-02T00:08:33.910Z,97824.66
2019-02-02T00:09:37.886Z,97821.88
2019-02-02T00:10:41.853Z,97816.50
2019-02-02T00:11:45.853Z,97816.25
2019-02-02T00:12:49.895Z,97812.47
2019-02-02T00:13:53.784Z,97805.27
2019-02-02T00:14:57.677Z,97810.88
2019-02-02T00:16:01.567Z,97810.48
2019-02-02T00:17:06.035Z,97810.48
2019-02-02T00:18:10.243Z,97814.91
2019-02-02T00:19:14.309Z,97818.36
2019-02-02T00:20:18.459Z,97821.83
2019-02-02T00:21:22.345Z,97817.41
2019-02-02T00:22:26.659Z,97813.48
2019-02-02T00:23:30.546Z,97809.09
2019-02-02T00:24:34.620Z,97811.30
2019-02-02T00:25:38.519Z,97812.03
2019-02-02T00:26:42.405Z,97810.11
2019-02-02T00:27:46.474Z,97810.88
2019-02-02T00:28:50.604Z,97808.56
2019-02-02T00:29:54.913Z,97804.68
2019-02-02T00:30:59.225Z,97808.23
2019-02-02T00:32:04.332Z,97812.27
2019-02-02T00:33:08.870Z,97808.14
2019-02-02T00:34:12.762Z,97778.03
2019-02-02T00:35:16.677Z,97802.55
2019-02-02T00:36:20.975Z,97792.14
2019-02-02T00:37:25.180Z,97786.77
2019-02-02T00:38:29.421Z,97790.80
2019-02-02T00:39:33.691Z,97791.66
2019-02-02T00:40:37.917Z,97790.22
2019-02-02T00:41:41.815Z,97795.98
2019-02-02T00:42:46.287Z,97786.95
2019-02-02T00:43:50.355Z,97793.57
2019-02-02T00:44:54.515Z,97796.27
2019-02-02T00:45:58.539Z,97792.86
2019-02-02T00:47:03.030Z,97802.27
2019-02-02T00:48:07.108Z,97796.89
2019-02-02T00:49:11.076Z,97806.31
2019-02-02T00:50:15.667Z,97804.58
2019-02-02T00:51:19.650Z,97809.09
2019-02-02T00:52:23.551Z,97808.27
2019-02-02T00:53:28.163Z,97809.96
2019-02-02T00:54:32.367Z,97813.03
2019-02-02T00:55:36.488Z,97815.14
2019-02-02T00:56:40.710Z,97812.35
2019-02-02T00:57:53.102Z,97818.02
2019-02-02T00:58:51.050Z,97822.40
2019-02-02T00:59:55.348Z,97831.61
2019-02-02T01:00:59.882Z,97825.27
2019-02-02T01:02:03.773Z,97823.20
2019-02-02T01:03:07.848Z,97821.37
2019-02-02T01:04:11.818Z,97815.65
2019-02-02T01:05:16.811Z,97814.65
2019-02-02T01:06:20.721Z,97811.86
2019-02-02T01:07:24.991Z,97816.76
2019-02-02T01:08:29.190Z,97816.86
2019-02-02T01:09:33.017Z,97818.69
2019-02-02T01:10:37.274Z,97819.07
2019-02-02T01:11:41.815Z,97827.52
2019-02-02T01:12:46.123Z,97830.59
2019-02-02T01:13:50.185Z,97833.29
2019-02-02T01:14:54.389Z,97842.13
2019-02-02T01:15:58.321Z,97853.66
2019-02-02T01:17:02.646Z,97850.96
2019-02-02T01:18:06.615Z,97847.75
2019-02-02T01:19:10.942Z,97840.92
2019-02-02T01:20:15.415Z,97838.23
2019-02-02T01:21:19.661Z,97837.27
2019-02-02T01:22:23.724Z,97832.84
2019-02-02T01:23:27.967Z,97835.55
2019-02-02T01:24:32.379Z,97835.92
2019-02-02T01:25:36.275Z,97835.44
2019-02-02T01:26:40.180Z,97828.71
2019-02-02T01:27:44.789Z,97825.05
2019-02-02T01:28:48.997Z,97814.67
2019-02-02T01:29:53.309Z,97814.67
2019-02-02T01:30:57.865Z,97809.77
2019-02-02T01:32:02.043Z,97813.42
2019-02-02T01:33:06.525Z,97819.77
2019-02-02T01:34:10.741Z,97820.16
2019-02-02T01:35:16.217Z,97826.41
2019-02-02T01:36:20.435Z,97834.95
2019-02-02T01:37:24.414Z,97834.58
2019-02-02T01:38:28.398Z,97845.44
2019-02-02T01:39:32.223Z,97847.27
2019-02-02T01:40:36.690Z,97845.92
2019-02-02T01:41:41.306Z,97839.68
2019-02-02T01:42:45.924Z,97833.47
2019-02-02T01:43:50.135Z,97824.83
2019-02-02T01:44:54.661Z,97822.24
2019-02-02T01:45:58.624Z,97823.20
2019-02-02T01:47:02.587Z,97819.69
2019-02-02T01:48:06.486Z,97804.86
2019-02-02T01:49:10.441Z,97829.10
2019-02-02T01:50:16.169Z,97824.20
2019-02-02T01:51:20.134Z,97817.96
2019-02-02T01:52:23.948Z,97825.06
2019-02-02T01:53:27.918Z,97823.72
2019-02-02T01:54:31.811Z,97823.72
2019-02-02T01:55:35.626Z,97828.72
2019-02-02T01:56:39.523Z,97821.13
2019-02-02T01:57:44.455Z,97821.37
2019-02-02T01:58:48.761Z,97821.37
2019-02-02T01:59:53.143Z,97822.48
2019-02-02T02:00:57.029Z,97827.58
2019-02-02T02:02:00.920Z,97839.20
2019-02-02T02:03:05.347Z,97841.89
2019-02-02T02:04:09.241Z,97845.45
2019-02-02T02:05:13.451Z,97847.17
2019-02-02T02:06:17.665Z,97845.25
2019-02-02T02:07:21.879Z,97847.94
2019-02-02T02:08:25.949Z,97853.67
2019-02-02T02:09:29.765Z,97851.74
2019-02-02T02:10:34.048Z,97849.33
2019-02-02T02:11:38.017Z,97858.66
2019-02-02T02:12:42.226Z,97860.38
2019-02-02T02:13:46.401Z,97868.32
2019-02-02T02:14:50.294Z,97868.70
2019-02-02T02:15:54.562Z,97878.98
2019-02-02T02:16:58.536Z,97872.74
2019-02-02T02:18:02.430Z,97883.02
2019-02-02T02:19:06.919Z,97878.98
2019-02-02T02:20:12.203Z,97879.75
2019-02-02T02:21:16.413Z,97875.81
2019-02-02T02:22:20.378Z,97874.47
2019-02-02T02:23:24.306Z,97868.80
2019-02-02T02:24:28.470Z,97867.45
2019-02-02T02:25:32.639Z,97867.64
2019-02-02T02:26:36.459Z,97860.38
2019-02-02T02:27:40.966Z,97865.53
2019-02-02T02:28:45.109Z,97859.81
2019-02-02T02:29:48.933Z,97856.11
2019-02-02T02:30:53.299Z,97856.98
2019-02-02T02:31:57.456Z,97850.06
2019-02-02T02:33:01.954Z,97841.61
2019-02-02T02:34:06.263Z,97836.13
2019-02-02T02:35:10.628Z,97832.68
2019-02-02T02:36:14.451Z,97830.12
2019-02-02T02:37:18.277Z,97816.44
2019-02-02T02:38:22.575Z,97812.63
2019-02-02T02:39:26.983Z,97807.78
2019-02-02T02:40:31.295Z,97803.94
2019-02-02T02:41:35.500Z,97802.66
2019-02-02T02:42:39.466Z,97801.41
2019-02-02T02:43:43.907Z,97798.85
2019-02-02T02:44:48.017Z,97793.88
2019-02-02T02:45:51.837Z,97801.21
2019-02-02T02:46:55.655Z,97797.95
2019-02-02T02:47:59.914Z,97802.57
2019-02-02T02:49:03.917Z,97803.97
2019-02-02T02:50:10.524Z,97807.61
2019-02-02T02:51:14.785Z,97805.64
2019-02-02T02:52:18.989Z,97802.47
2019-02-02T02:53:23.702Z,97800.20
2019-02-02T02:54:27.766Z,97801.75
2019-02-02T02:55:31.594Z,97809.62
2019-02-02T02:56:35.880Z,97811.35
2019-02-02T03:01:37.287Z,97821.72
2019-02-02T03:03:00.255Z,97819.77
2019-02-02T03:04:23.278Z,97824.17
2019-02-02T03:07:19.449Z,97824.46
2019-02-02T03:08:22.639Z,97830.13
2019-02-02T03:09:26.609Z,97820.97
2019-02-02T03:10:30.831Z,97824.80
2019-02-02T03:11:34.795Z,97826.91
2019-02-02T03:12:38.757Z,97827.78
2019-02-02T03:13:42.734Z,97831.30
2019-02-02T03:14:46.870Z,97830.47
2019-02-02T03:15:50.859Z,97836.20
2019-02-02T03:16:54.831Z,97831.58
2019-02-02T03:17:59.040Z,97836.95
2019-02-02T03:19:03.011Z,97840.03
2019-02-02T03:20:08.022Z,97837.72
2019-02-02T03:21:11.914Z,97841.17
2019-02-02T03:22:16.050Z,97839.84
2019-02-02T03:23:20.509Z,97835.67
2019-02-02T03:24:24.479Z,97841.81
2019-02-02T03:25:28.558Z,97832.88
2019-02-02T03:26:33.026Z,97831.91
2019-02-02T03:27:37.227Z,97837.20
2019-02-02T03:28:52.862Z,97836.91
2019-02-02T03:29:46.975Z,97839.22
2019-02-02T03:30:50.883Z,97836.05
2019-02-02T03:31:54.778Z,97827.12
2019-02-02T03:32:58.998Z,97827.12
2019-02-02T03:34:03.129Z,97820.04
2019-02-02T03:35:07.846Z,97826.48
2019-02-02T03:36:12.070Z,97818.03
2019-02-02T03:37:16.347Z,97815.83
2019-02-02T03:38:20.237Z,97781.05
2019-02-02T03:39:24.213Z,97820.87
2019-02-02T03:40:28.180Z,97826.34
2019-02-02T03:41:32.396Z,97828.17
2019-02-02T03:42:36.556Z,97840.66
2019-02-02T03:43:40.781Z,97845.07
2019-02-02T03:44:44.969Z,97842.77
2019-02-02T03:45:49.210Z,97846.61
2019-02-02T03:46:53.430Z,97850.98
2019-02-02T03:47:57.645Z,97853.96
2019-02-02T03:49:01.861Z,97855.97
2019-02-02T03:50:06.828Z,97851.80
2019-02-02T03:51:11.055Z,97848.64
2019-02-02T03:52:15.197Z,97852.09
2019-02-02T03:53:19.092Z,97843.44
2019-02-02T03:54:23.226Z,97842.48
2019-02-02T03:55:27.434Z,97839.20
2019-02-02T03:56:31.578Z,97836.13
2019-02-02T03:57:35.547Z,97841.13
2019-02-02T03:58:39.754Z,97845.93
2019-02-02T03:59:43.571Z,97849.58
2019-02-02T04:00:47.706Z,97851.89
2019-02-02T04:01:51.690Z,97855.45
2019-02-02T04:02:55.582Z,97860.92
2019-02-02T04:03:59.860Z,97866.30
2019-02-02T04:05:04.427Z,97869.86
2019-02-02T04:06:08.635Z,97877.45
2019-02-02T04:07:12.798Z,97882.34
2019-02-02T04:08:17.021Z,97884.56
2019-02-02T04:09:20.919Z,97879.66
2019-02-02T04:10:25.125Z,97884.08
2019-02-02T04:11:29.345Z,97881.87
2019-02-02T04:12:33.173Z,97882.34
2019-02-02T04:13:37.315Z,97889.46
2019-02-02T04:14:41.205Z,97893.36
2019-02-02T04:15:45.172Z,97884.08
2019-02-02T04:16:49.314Z,97891.53
2019-02-02T04:17:53.546Z,97895.70
2019-02-02T04:18:57.754Z,97890.52
2019-02-02T04:20:01.893Z,97900.03
2019-02-02T04:21:05.862Z,97896.95
2019-02-02T04:22:09.863Z,97897.92
2019-02-02T04:23:14.002Z,97887.55
2019-02-02T04:24:18.141Z,97881.69
2019-02-02T04:25:22.670Z,97871.16
2019-02-02T04:26:26.634Z,97862.99
2019-02-02T04:27:30.617Z,97866.55
2019-02-02T04:28:34.508Z,97871.16
2019-02-02T04:29:38.473Z,97875.04
2019-02-02T04:30:42.685Z,97881.42
2019-02-02T04:31:46.903Z,97885.16
2019-02-02T04:32:51.125Z,97874.16
2019-02-02T04:33:55.490Z,97873.00
2019-02-02T04:34:59.958Z,97869.26
2019-02-02T04:36:03.926Z,97872.55
2019-02-02T04:37:07.750Z,97865.06
2019-02-02T04:38:11.913Z,97873.99
2019-02-02T04:39:15.970Z,97877.06
2019-02-02T04:40:19.938Z,97880.52
2019-02-02T04:41:23.760Z,97882.22
2019-02-02T04:42:27.908Z,97888.08
2019-02-02T04:43:32.375Z,97891.63
2019-02-02T04:44:36.510Z,97899.50
2019-02-02T04:45:40.476Z,97903.54
2019-02-02T04:46:44.374Z,97896.23
2019-02-02T04:47:48.286Z,97897.01
2019-02-02T04:48:52.345Z,97889.67
2019-02-02T04:49:56.313Z,97886.02
2019-02-02T04:51:00.627Z,97888.91
2019-02-02T04:52:04.836Z,97890.50
2019-02-02T04:53:09.056Z,97883.30
2019-02-02T04:54:13.116Z,97881.86
2019-02-02T04:55:18.383Z,97888.48
2019-02-02T04:56:22.277Z,97891.56
2019-02-02T04:57:26.179Z,97893.77
2019-02-02T04:58:30.090Z,97894.50
2019-02-02T04:59:34.237Z,97898.44
2019-02-02T05:00:38.370Z,97903.72
2019-02-02T05:01:42.264Z,97909.39
2019-02-02T05:02:46.468Z,97905.35
2019-02-02T05:03:50.378Z,97907.34
2019-02-02T05:04:54.268Z,97900.90
2019-02-02T05:05:58.487Z,97901.18
2019-02-02T05:07:02.305Z,97901.28
2019-02-02T05:08:06.287Z,97906.56
2019-02-02T05:09:10.497Z,97920.02
2019-02-02T05:10:16.210Z,97925.97
2019-02-02T05:11:20.417Z,97924.53
2019-02-02T05:12:24.555Z,97927.22
2019-02-02T05:13:28.786Z,97926.26
2019-02-02T05:14:32.686Z,97920.49
2019-02-02T05:15:36.884Z,97926.64
2019-02-02T05:16:41.017Z,97932.02
2019-02-02T05:17:45.234Z,97923.09
2019-02-02T05:18:49.385Z,97927.13
2019-02-02T05:19:53.534Z,97920.02
2019-02-02T05:20:57.751Z,97920.02
2019-02-02T05:22:02.132Z,97921.07
2019-02-02T05:23:06.370Z,97917.23
2019-02-02T05:24:10.601Z,97915.63
2019-02-02T05:25:14.905Z,97904.48
2019-02-02T05:26:19.113Z,97884.80
2019-02-02T05:27:22.929Z,97887.39
2019-02-02T05:28:27.075Z,97883.41
2019-02-02T05:29:41.150Z,97879.75
2019-02-02T05:30:36.918Z,97878.55
2019-02-02T05:31:40.890Z,97859.33
2019-02-02T05:32:45.102Z,97887.63
2019-02-02T05:33:49.072Z,97887.72
2019-02-02T05:34:53.667Z,97896.02
2019-02-02T05:35:57.877Z,97903.31
2019-02-02T05:37:02.010Z,97903.89
2019-02-02T05:38:05.993Z,97902.93
2019-02-02T05:39:10.565Z,97904.81
2019-02-02T05:40:15.917Z,97908.21
2019-02-02T05:41:19.981Z,97910.23
2019-02-02T05:42:24.116Z,97910.45
2019-02-02T05:43:28.328Z,97912.92
2019-02-02T05:44:32.490Z,97908.30
2019-02-02T05:45:36.702Z,97908.98
2019-02-02T05:46:40.596Z,97915.16
2019-02-02T05:47:44.571Z,97918.33
2019-02-02T05:48:48.382Z,97934.07
2019-02-02T05:49:52.217Z,97937.72
2019-02-02T05:50:56.039Z,97946.75
2019-02-02T05:52:00.097Z,97949.91
2019-02-02T05:53:04.334Z,97945.88
2019-02-02T05:54:08.781Z,97951.64
2019-02-02T05:55:13.835Z,97955.59
2019-02-02T05:56:17.724Z,97951.36
2019-02-02T05:57:21.870Z,97953.48
2019-02-02T05:58:26.010Z,97957.86
2019-02-02T05:59:30.394Z,97957.77
2019-02-02T06:00:46.728Z,97957.19
2019-02-02T06:01:50.696Z,97961.61
2019-02-02T06:02:54.660Z,97957.87
2019-02-02T06:03:58.881Z,97957.45
2019-02-02T06:05:03.295Z,97963.41
2019-02-02T06:06:07.501Z,97962.55
2019-02-02T06:07:11.711Z,97962.64
2019-02-02T06:08:15.674Z,97962.86
2019-02-02T06:09:22.475Z,97961.13
2019-02-02T06:10:25.508Z,97960.75
2019-02-02T06:11:29.718Z,97959.59
2019-02-02T06:12:33.848Z,97965.65
2019-02-02T06:13:37.742Z,97956.91
2019-02-02T06:14:41.632Z,97958.63
2019-02-02T06:15:45.614Z,97941.34
2019-02-02T06:16:49.514Z,97930.97
2019-02-02T06:17:53.731Z,97925.91
2019-02-02T06:18:57.541Z,97910.36
2019-02-02T06:20:01.514Z,97908.62
2019-02-02T06:21:05.661Z,97897.39
2019-02-02T06:22:09.871Z,97880.52
2019-02-02T06:23:13.690Z,97874.95
2019-02-02T06:24:17.577Z,97889.09
2019-02-02T06:25:21.579Z,97910.34
2019-02-02T06:26:25.540Z,97918.30
2019-02-02T06:27:29.954Z,97919.09
2019-02-02T06:28:34.419Z,97917.08
2019-02-02T06:29:38.564Z,97919.55
2019-02-02T06:30:42.401Z,97918.05
2019-02-02T06:31:46.221Z,97928.58
2019-02-02T06:32:50.129Z,97940.11
2019-02-02T06:33:54.010Z,97942.80
2019-02-02T06:34:58.249Z,97944.44
2019-02-02T06:36:03.625Z,97937.81
2019-02-02T06:37:07.637Z,97934.63
2019-02-02T06:38:11.546Z,97939.42
2019-02-02T06:39:15.443Z,97935.13
2019-02-02T06:40:19.656Z,97936.86
2019-02-02T06:41:23.672Z,97937.72
2019-02-02T06:42:27.782Z,97943.36
2019-02-02T06:43:31.755Z,97946.72
2019-02-02T06:44:35.775Z,97951.05
2019-02-02T06:45:39.867Z,97952.17
2019-02-02T06:46:44.340Z,97958.31
2019-02-02T06:47:48.521Z,97968.02
2019-02-02T06:48:52.409Z,97974.13
2019-02-02T06:49:56.231Z,97977.50
2019-02-02T06:51:00.394Z,97980.96
2019-02-02T06:52:04.610Z,97982.09
2019-02-02T06:53:08.576Z,97983.25
2019-02-02T06:54:12.472Z,97988.91
2019-02-02T06:55:16.761Z,98000.80
2019-02-02T06:56:21.162Z,98004.16
2019-02-02T06:57:25.061Z,98001.38
2019-02-02T06:58:29.026Z,98000.52
2019-02-02T06:59:32.850Z,98002.72
2019-02-02T07:00:37.068Z,98000.52
2019-02-02T07:01:41.307Z,98001.73
2019-02-02T07:02:45.526Z,97998.56
2019-02-02T07:03:49.415Z,98009.61
2019-02-02T07:04:53.486Z,98013.35
2019-02-02T07:05:57.462Z,98020.84
2019-02-02T07:07:01.374Z,98023.44
2019-02-02T07:08:05.356Z,98018.06
2019-02-02T07:09:09.976Z,98021.05
2019-02-02T07:10:24.802Z,98027.16
2019-02-02T07:11:28.940Z,98023.90
2019-02-02T07:12:33.322Z,98032.93
2019-02-02T07:13:37.141Z,98030.08
2019-02-02T07:14:41.110Z,98034.20
2019-02-02T07:15:45.322Z,98041.02
2019-02-02T07:16:49.153Z,98042.94
2019-02-02T07:17:53.545Z,98044.67
2019-02-02T07:18:57.440Z,98048.52
2019-02-02T07:20:01.410Z,98058.09
2019-02-02T07:21:05.373Z,98059.84
2019-02-02T07:22:09.587Z,98057.95
2019-02-02T07:23:13.806Z,98057.17
2019-02-02T07:24:18.009Z,98052.58
2019-02-02T07:25:21.979Z,98056.03
2019-02-02T07:26:25.864Z,98053.81
2019-02-02T07:27:30.259Z,98054.69
2019-02-02T07:28:34.237Z,98055.56
2019-02-02T07:29:38.046Z,98060.46
2019-02-02T07:30:42.253Z,98062.10
2019-02-02T07:31:46.461Z,98067.09
2019-02-02T07:32:50.526Z,98067.39
2019-02-02T07:33:54.418Z,98069.88
2019-02-02T07:34:58.736Z,98074.29
2019-02-02T07:36:02.871Z,98078.41
2019-02-02T07:37:07.072Z,98074.00
2019-02-02T07:38:11.307Z,98074.08
2019-02-02T07:39:15.457Z,98067.95
2019-02-02T07:40:19.730Z,98071.42
2019-02-02T07:41:23.798Z,98065.54
2019-02-02T07:42:27.615Z,98071.39
2019-02-02T07:43:31.542Z,98072.87
2019-02-02T07:44:35.442Z,98078.89
2019-02-02T07:45:39.257Z,98074.29
2019-02-02T07:46:43.150Z,98073.13
2019-02-02T07:47:47.391Z,98077.16
2019-02-02T07:48:51.209Z,98078.98
2019-02-02T07:49:55.669Z,98078.41
2019-02-02T07:50:59.562Z,98077.94
2019-02-02T07:52:03.776Z,98086.78
2019-02-02T07:53:07.757Z,98078.23
2019-02-02T07:54:11.727Z,98073.72
2019-02-02T07:55:16.947Z,98067.65
2019-02-02T07:56:20.839Z,98059.88
2019-02-02T07:57:24.977Z,98061.41
2019-02-02T07:58:28.886Z,98061.89
2019-02-02T07:59:32.783Z,98075.08
2019-02-02T08:00:41.756Z,98085.61
2019-02-02T08:01:43.620Z,98094.08
2019-02-02T08:02:47.836Z,98103.09
2019-02-02T08:03:52.064Z,98108.47
2019-02-02T08:04:55.967Z,98109.64
2019-02-02T08:06:00.103Z,98110.86
2019-02-02T08:07:04.074Z,98112.50
2019-02-02T08:08:08.042Z,98109.24
2019-02-02T08:09:12.269Z,98121.91
2019-02-02T08:10:16.330Z,98127.67
2019-02-02T08:11:20.543Z,98126.33
2019-02-02T08:12:24.508Z,98124.50
2019-02-02T08:13:28.577Z,98125.58
2019-02-02T08:14:32.826Z,98124.11
2019-02-02T08:15:37.031Z,98117.69
2019-02-02T08:16:41.274Z,98122.75
2019-02-02T08:17:45.181Z,98124.01
2019-02-02T08:18:49.164Z,98114.89
2019-02-02T08:19:52.999Z,98116.14
2019-02-02T08:20:57.134Z,98114.58
2019-02-02T08:22:01.364Z,98114.97
2019-02-02T08:23:06.195Z,98113.53
2019-02-02T08:24:10.349Z,98116.52
2019-02-02T08:25:15.654Z,98121.33
2019-02-02T08:26:19.861Z,98102.95
2019-02-02T08:27:24.069Z,98119.48
2019-02-02T08:28:27.976Z,98122.92
2019-02-02T08:29:31.881Z,98121.02
2019-02-02T08:30:36.469Z,98121.11
2019-02-02T08:31:40.508Z,98118.25
2019-02-02T08:32:44.724Z,98122.28
2019-02-02T08:33:48.621Z,98127.55
2019-02-02T08:34:52.710Z,98131.33
2019-02-02T08:35:56.890Z,98129.59
2019-02-02T08:37:00.787Z,98139.01
2019-02-02T08:38:04.986Z,98143.52
2019-02-02T08:39:10.283Z,98150.25
2019-02-02T08:40:15.118Z,98159.09
2019-02-02T08:41:19.082Z,98152.24
2019-02-02T08:42:23.289Z,98156.09
2019-02-02T08:43:27.182Z,98152.62
2019-02-02T08:44:31.259Z,98161.17
2019-02-02T08:45:35.176Z,98162.42
2019-02-02T08:46:39.713Z,98173.96
2019-02-02T08:47:44.130Z,98169.35
2019-02-02T08:48:48.276Z,98156.07
2019-02-02T08:49:52.359Z,98144.55
2019-02-02T08:50:56.572Z,98142.98
2019-02-02T08:52:00.539Z,98140.78
2019-02-02T08:53:04.710Z,98151.45
2019-02-02T08:54:08.686Z,98168.28
2019-02-02T08:55:12.949Z,98172.70
2019-02-02T08:56:17.227Z,98164.50
2019-02-02T08:57:21.363Z,98167.97
2019-02-02T08:58:25.689Z,98175.56
2019-02-02T08:59:29.521Z,98182.29
2019-02-02T09:00:33.676Z,98199.69
2019-02-02T09:01:37.818Z,98203.64
2019-02-02T09:02:42.090Z,98203.90
2019-02-02T09:03:46.252Z,98205.06
2019-02-02T09:04:50.239Z,98200.45
2019-02-02T09:05:54.227Z,98201.48
2019-02-02T09:06:58.156Z,98206.88
2019-02-02T09:08:02.386Z,98210.34
2019-02-02T09:09:08.906Z,98208.90
2019-02-02T09:10:15.709Z,98205.25
2019-02-02T09:11:19.674Z,98196.56
2019-02-02T09:12:23.982Z,98188.88
2019-02-02T09:13:27.804Z,98197.65
2019-02-02T09:14:32.180Z,98201.69
2019-02-02T09:15:36.405Z,98196.30
2019-02-02T09:16:40.376Z,98201.20
2019-02-02T09:17:44.269Z,98198.91
2019-02-02T09:18:51.034Z,98198.78
2019-02-02T09:19:53.694Z,98207.53
2019-02-02T09:20:57.677Z,98207.34
2019-02-02T09:22:01.821Z,98199.82
2019-02-02T09:23:06.756Z,98203.55
2019-02-02T09:24:10.828Z,98201.91
2019-02-02T09:25:15.684Z,98207.08
2019-02-02T09:26:19.846Z,98206.98
2019-02-02T09:27:23.977Z,98208.81
2019-02-02T09:28:27.876Z,98202.30
2019-02-02T09:29:32.190Z,98208.81
2019-02-02T09:30:38.069Z,98205.25
2019-02-02T09:31:41.973Z,98206.51
2019-02-02T09:32:45.817Z,98210.73
2019-02-02T09:33:49.701Z,98210.52
2019-02-02T09:34:53.918Z,98214.27
2019-02-02T09:35:57.902Z,98212.22
2019-02-02T09:37:02.117Z,98216.84
2019-02-02T09:38:06.174Z,98212.80
2019-02-02T09:39:10.331Z,98206.06
2019-02-02T09:40:15.803Z,98212.80
2019-02-02T09:41:19.711Z,98215.02
2019-02-02T09:42:23.602Z,98222.97
2019-02-02T09:43:27.565Z,98225.31
2019-02-02T09:44:31.781Z,98230.22
2019-02-02T09:45:35.750Z,98222.36
2019-02-02T09:46:39.654Z,98227.45
2019-02-02T09:47:43.868Z,98227.94
2019-02-02T09:48:48.005Z,98234.19
2019-02-02T09:49:51.968Z,98227.84
2019-02-02T09:50:56.172Z,98233.52
2019-02-02T09:52:00.244Z,98227.42
2019-02-02T09:53:04.209Z,98235.80
2019-02-02T09:54:09.245Z,98228.97
2019-02-02T09:55:14.963Z,98239.39
2019-02-02T09:56:19.110Z,98236.98
2019-02-02T09:57:23.245Z,98239.77
2019-02-02T09:58:27.248Z,98242.87
2019-02-02T10:01:32.682Z,98248.30
2019-02-02T10:04:18.731Z,98258.97
2019-02-02T10:05:22.715Z,98258.13
2019-02-02T10:06:45.833Z,98261.09
2019-02-02T10:07:50.339Z,98262.16
2019-02-02T10:09:13.493Z,98263.97
2019-02-02T10:10:19.434Z,98260.10
2019-02-02T10:11:23.659Z,98269.64
2019-02-02T10:12:27.870Z,98261.63
2019-02-02T10:13:32.082Z,98262.48
2019-02-02T10:14:36.199Z,98268.80
2019-02-02T10:15:40.192Z,98260.21
2019-02-02T10:16:44.409Z,98264.77
2019-02-02T10:17:49.786Z,98263.40
2019-02-02T10:18:54.208Z,98261.92
2019-02-02T10:19:58.087Z,98255.73
2019-02-02T10:21:04.224Z,98259.25
2019-02-02T10:22:08.168Z,98255.27
2019-02-02T10:23:12.451Z,98259.95
2019-02-02T10:24:16.596Z,98261.20
2019-02-02T10:25:22.650Z,98252.09
2019-02-02T10:26:26.880Z,98255.28
2019-02-02T10:27:30.697Z,98253.78
2019-02-02T10:28:34.906Z,98255.36
2019-02-02T10:29:38.727Z,98255.94
2019-02-02T10:30:44.147Z,98258.92
2019-02-02T10:31:48.055Z,98255.52
2019-02-02T10:32:52.268Z,98258.88
2019-02-02T10:33:56.325Z,98259.91
2019-02-02T10:35:00.217Z,98266.36
2019-02-02T10:36:04.282Z,98264.88
2019-02-02T10:37:08.272Z,98266.61
2019-02-02T10:38:12.238Z,98265.16
2019-02-02T10:39:16.457Z,98263.61
2019-02-02T10:40:20.668Z,98273.30
2019-02-02T10:41:24.563Z,98264.14
2019-02-02T10:42:28.481Z,98264.05
2019-02-02T10:43:32.374Z,98266.55
2019-02-02T10:44:36.271Z,98269.11
2019-02-02T10:45:40.483Z,98271.76
2019-02-02T10:46:44.686Z,98268.91
2019-02-02T10:47:48.907Z,98268.52
2019-02-02T10:48:53.149Z,98269.39
2019-02-02T10:49:57.010Z,98268.04
2019-02-02T10:51:00.976Z,98268.30
2019-02-02T10:52:05.046Z,98273.88
2019-02-02T10:53:09.030Z,98253.50
2019-02-02T10:54:13.180Z,98273.30
2019-02-02T10:55:17.395Z,98270.08
2019-02-02T10:56:21.596Z,98254.66
2019-02-02T10:57:25.724Z,98271.33
2019-02-02T10:58:29.710Z,98271.61
2019-02-02T10:59:33.528Z,98272.86
2019-02-02T11:00:39.481Z,98276.67
2019-02-02T11:01:50.853Z,98275.51
2019-02-02T11:02:49.564Z,98284.63
2019-02-02T11:03:53.714Z,98277.77
2019-02-02T11:04:57.930Z,98283.84
2019-02-02T11:06:02.003Z,98277.72
2019-02-02T11:07:05.982Z,98283.60
2019-02-02T11:08:09.951Z,98288.80
2019-02-02T11:09:14.245Z,98279.63
2019-02-02T11:10:20.908Z,98285.89
2019-02-02T11:11:25.053Z,98285.77
2019-02-02T11:12:29.255Z,98283.45
2019-02-02T11:13:33.414Z,98295.49
2019-02-02T11:14:37.237Z,98291.34
2019-02-02T11:15:41.565Z,98292.20
2019-02-02T11:16:45.715Z,98295.29
2019-02-02T11:17:49.923Z,98297.02
2019-02-02T11:18:54.242Z,98295.05
2019-02-02T11:19:58.414Z,98296.69
2019-02-02T11:21:02.671Z,98303.48
2019-02-02T11:22:06.886Z,98298.25
2019-02-02T11:23:11.364Z,98291.70
2019-02-02T11:24:15.547Z,98302.13
2019-02-02T11:25:19.917Z,98296.63
2019-02-02T11:26:23.858Z,98295.84
2019-02-02T11:27:28.030Z,98296.19
2019-02-02T11:28:32.119Z,98294.34
2019-02-02T11:29:36.310Z,98297.67
2019-02-02T11:30:40.491Z,98300.23
2019-02-02T11:31:44.438Z,98300.23
2019-02-02T11:32:48.406Z,98300.19
2019-02-02T11:33:52.322Z,98302.13
2019-02-02T11:34:56.145Z,98305.31
2019-02-02T11:36:00.370Z,98298.95
2019-02-02T11:37:04.341Z,98305.49
2019-02-02T11:38:08.307Z,98300.72
2019-02-02T11:39:12.309Z,98305.81
2019-02-02T11:40:18.529Z,98301.05
2019-02-02T11:41:22.515Z,98307.69
2019-02-02T11:42:26.446Z,98309.22
2019-02-02T11:43:30.682Z,98312.30
2019-02-02T11:44:34.901Z,98310.47
2019-02-02T11:45:39.070Z,98308.87
2019-02-02T11:46:43.566Z,98309.64
2019-02-02T11:47:47.788Z,98308.42
2019-02-02T11:48:52.191Z,98314.00
2019-02-02T11:49:56.343Z,98315.63
2019-02-02T11:51:00.561Z,98313.45
2019-02-02T11:52:04.536Z,98313.34
2019-02-02T11:53:08.523Z,98318.02
2019-02-02T11:54:12.442Z,98314.52
2019-02-02T11:55:17.135Z,98311.95
2019-02-02T11:56:21.356Z,98313.20
2019-02-02T11:57:25.267Z,98319.68
2019-02-02T11:58:29.097Z,98315.86
2019-02-02T11:59:33.526Z,98322.14
2019-02-02T12:00:39.944Z,98324.46
2019-02-02T12:01:43.845Z,98321.27
2019-02-02T12:02:49.577Z,98319.81
2019-02-02T12:03:53.830Z,98329.27
2019-02-02T12:04:57.996Z,98330.03
2019-02-02T12:06:02.166Z,98329.93
2019-02-02T12:07:06.150Z,98328.72
2019-02-02T12:08:10.369Z,98336.34
2019-02-02T12:09:14.683Z,98340.19
2019-02-02T12:10:20.047Z,98337.86
2019-02-02T12:11:23.952Z,98334.78
2019-02-02T12:12:27.936Z,98340.19
2019-02-02T12:13:32.322Z,98336.85
2019-02-02T12:14:36.463Z,98340.56
2019-02-02T12:15:40.737Z,98346.94
2019-02-02T12:16:44.940Z,98340.67
2019-02-02T12:17:49.441Z,98338.83
2019-02-02T12:18:53.517Z,98334.16
2019-02-02T12:19:57.486Z,98336.53
2019-02-02T12:21:01.405Z,98340.11
2019-02-02T12:22:05.916Z,98334.45
2019-02-02T12:23:09.911Z,98337.33
2019-02-02T12:24:16.243Z,98330.69
2019-02-02T12:25:19.443Z,98332.80
2019-02-02T12:26:23.585Z,98329.13
2019-02-02T12:27:27.798Z,98331.73
2019-02-02T12:28:31.908Z,98327.31
2019-02-02T12:29:35.818Z,98325.58
2019-02-02T12:30:40.040Z,98328.75
2019-02-02T12:31:44.015Z,98332.67
2019-02-02T12:32:47.993Z,98337.33
2019-02-02T12:33:52.207Z,98337.33
2019-02-02T12:34:56.180Z,98340.30
2019-02-02T12:36:00.239Z,98338.59
2019-02-02T12:37:04.473Z,98346.35
2019-02-02T12:38:08.448Z,98344.19
2019-02-02T12:39:12.534Z,98347.41
2019-02-02T12:40:16.648Z,98343.03
2019-02-02T12:41:20.887Z,98342.94
2019-02-02T12:42:25.102Z,98353.51
2019-02-02T12:43:29.168Z,98354.14
2019-02-02T12:44:32.997Z,98351.43
2019-02-02T12:45:45.731Z,98352.64